Time;durP1;ratioP1;P1;durP2;ratioP2;P2;SDS_P1;SDS_P2;PMS_P1;PMS_P2;Temp;Humidity;BMP_temperature;BMP_pressure;BME280_temperature;BME280_humidity;BME280_pressure;Samples;Min_cycle;Max_cycle;Signal;HPM_P1;HPM_P2
2022/03/23 00:00:34;;;;;;;7.47;6.05;;;;;;;;;;5004837;28;20045;-73
2022/03/23 00:03:02;;;;;;;6.13;5.35;;;;;;;;;;5006614;28;20074;-73
2022/03/23 00:05:29;;;;;;;12.10;5.32;;;;;;;;;;5008612;28;20325;-74
2022/03/23 00:07:56;;;;;;;6.30;5.28;;;;;;;;;;5008198;28;20061;-76
2022/03/23 00:10:24;;;;;;;10.52;5.25;;;;;;;;;;5007858;28;20046;-73
2022/03/23 00:12:51;;;;;;;6.50;5.30;;;;;;;;;;5008468;28;20210;-73
2022/03/23 00:15:19;;;;;;;6.07;5.10;;;;;;;;;;5003652;28;20049;-73
2022/03/23 00:17:47;;;;;;;6.88;5.10;;;;;;;;;;5005614;28;20509;-74
2022/03/23 00:20:15;;;;;;;6.20;4.53;;;;;;;;;;5006794;28;20254;-75
2022/03/23 00:22:42;;;;;;;5.57;4.75;;;;;;;;;;5010701;28;20461;-74
2022/03/23 00:25:09;;;;;;;6.80;5.15;;;;;;;;;;5005641;28;20042;-75
2022/03/23 00:27:37;;;;;;;5.28;4.78;;;;;;;;;;5010696;28;20045;-73
2022/03/23 00:30:05;;;;;;;5.00;4.50;;;;;;;;;;5007191;28;20052;-73
2022/03/23 00:32:32;;;;;;;10.15;5.70;;;;;;;;;;5006774;28;20143;-74
2022/03/23 00:35:01;;;;;;;8.23;5.40;;;;;;;;;;5005011;28;20163;-74
2022/03/23 00:37:29;;;;;;;5.57;4.97;;;;;;;;;;5006795;28;20127;-73
2022/03/23 00:39:56;;;;;;;6.50;4.65;;;;;;;;;;5005008;28;20049;-72
2022/03/23 00:42:24;;;;;;;7.88;5.05;;;;;;;;;;5004337;28;20049;-74
2022/03/23 00:44:54;;;;;;;5.63;4.65;;;;;;;;;;5004622;28;20459;-74
2022/03/23 00:47:23;;;;;;;8.30;5.07;;;;;;;;;;5006429;28;20050;-75
2022/03/23 00:49:50;;;;;;;9.18;5.25;;;;;;;;;;5001704;28;20045;-73
2022/03/23 00:52:17;;;;;;;6.40;5.40;;;;;;;;;;5005189;28;20091;-74
2022/03/23 00:54:45;;;;;;;8.35;5.45;;;;;;;;;;5005065;28;20498;-74
2022/03/23 00:57:12;;;;;;;6.72;5.30;;;;;;;;;;5007829;28;20521;-74
2022/03/23 00:59:40;;;;;;;5.38;4.72;;;;;;;;;;5007002;28;20093;-75
2022/03/23 01:02:10;;;;;;;5.70;5.10;;;;;;;;;;5006067;28;20379;-73
2022/03/23 01:04:38;;;;;;;5.97;4.90;;;;;;;;;;5007023;28;20516;-74
2022/03/23 01:07:05;;;;;;;6.00;4.82;;;;;;;;;;5011197;28;20409;-74
2022/03/23 01:09:35;;;;;;;5.40;4.90;;;;;;;;;;5006531;28;20498;-74
2022/03/23 01:12:03;;;;;;;6.28;4.72;;;;;;;;;;4988850;28;20137;-74
2022/03/23 01:14:30;;;;;;;5.30;4.80;;;;;;;;;;5004699;28;20046;-73
2022/03/23 01:17:01;;;;;;;5.20;4.70;;;;;;;;;;5004847;28;20410;-73
2022/03/23 01:19:29;;;;;;;8.43;5.78;;;;;;;;;;5004610;28;20062;-74
2022/03/23 01:21:58;;;;;;;5.65;4.63;;;;;;;;;;5010114;28;20112;-72
2022/03/23 01:24:25;;;;;;;5.97;4.60;;;;;;;;;;5007473;28;20071;-74
2022/03/23 01:26:53;;;;;;;5.82;4.57;;;;;;;;;;5011073;28;20054;-74
2022/03/23 01:29:21;;;;;;;5.85;4.75;;;;;;;;;;5004461;28;20306;-73
2022/03/23 01:31:49;;;;;;;6.75;5.07;;;;;;;;;;5007806;28;20045;-74
2022/03/23 01:34:17;;;;;;;6.40;4.75;;;;;;;;;;5006266;28;20045;-74
2022/03/23 01:36:44;;;;;;;5.30;4.78;;;;;;;;;;5006155;28;20422;-75
2022/03/23 01:39:13;;;;;;;7.43;4.00;;;;;;;;;;4989885;28;20042;-75
2022/03/23 01:41:41;;;;;;;6.22;4.88;;;;;;;;;;5010747;28;20069;-75
2022/03/23 01:44:19;;;;;;;6.90;5.15;;;;;;;;;;5005104;28;20066;-74
2022/03/23 01:47:06;;;;;;;5.70;5.10;;;;;;;;;;4988812;28;20445;-75
2022/03/23 01:49:35;;;;;;;5.35;4.30;;;;;;;;;;5006381;28;20052;-72
2022/03/23 01:52:04;;;;;;;5.70;5.07;;;;;;;;;;5011097;28;20061;-71
2022/03/23 01:54:35;;;;;;;5.28;4.78;;;;;;;;;;5005168;28;20395;-72
2022/03/23 01:57:03;;;;;;;7.03;4.60;;;;;;;;;;5005609;28;20049;-72
2022/03/23 01:59:32;;;;;;;5.15;4.60;;;;;;;;;;5009175;28;20058;-73
2022/03/23 02:01:59;;;;;;;5.75;4.35;;;;;;;;;;5004698;28;20382;-74
2022/03/23 02:04:30;;;;;;;6.45;4.93;;;;;;;;;;5004624;28;20042;-72
2022/03/23 02:06:58;;;;;;;4.95;4.45;;;;;;;;;;5009170;28;20132;-72
2022/03/23 02:09:28;;;;;;;5.43;4.82;;;;;;;;;;5004552;28;20081;-74
2022/03/23 02:12:01;;;;;;;5.57;4.20;;;;;;;;;;4993923;28;20045;-72
2022/03/23 02:14:28;;;;;;;8.70;4.40;;;;;;;;;;5005176;28;20045;-74
2022/03/23 02:16:56;;;;;;;5.60;4.50;;;;;;;;;;5006374;28;20351;-71
2022/03/23 02:19:23;;;;;;;5.55;4.10;;;;;;;;;;5004636;28;20048;-72
2022/03/23 02:21:54;;;;;;;5.97;4.60;;;;;;;;;;5004890;28;20272;-72
2022/03/23 02:24:23;;;;;;;6.22;4.93;;;;;;;;;;5004323;28;20389;-71
2022/03/23 02:26:51;;;;;;;4.72;3.97;;;;;;;;;;5007450;28;20054;-73
2022/03/23 02:29:24;;;;;;;5.25;4.53;;;;;;;;;;5006338;28;20398;-72
2022/03/23 02:31:51;;;;;;;5.95;4.72;;;;;;;;;;5004068;28;20038;-74
2022/03/23 02:34:19;;;;;;;8.18;5.10;;;;;;;;;;5009143;28;20505;-74
2022/03/23 02:36:46;;;;;;;5.78;4.97;;;;;;;;;;5010538;28;20042;-74
2022/03/23 02:39:13;;;;;;;7.38;4.75;;;;;;;;;;5005905;28;20356;-74
2022/03/23 02:41:41;;;;;;;7.07;5.18;;;;;;;;;;5006436;28;20050;-73
2022/03/23 02:44:09;;;;;;;9.40;5.10;;;;;;;;;;5009231;28;20060;-74
2022/03/23 02:46:36;;;;;;;8.05;4.72;;;;;;;;;;5012272;28;20065;-71
2022/03/23 02:49:04;;;;;;;6.43;4.10;;;;;;;;;;5009765;28;20042;-72
2022/03/23 02:51:31;;;;;;;6.22;4.70;;;;;;;;;;5014984;28;20046;-71
2022/03/23 03:02:38;;;;;;;4.85;4.40;;;;;;;;;;5011720;28;20153;-73
2022/03/23 03:05:06;;;;;;;4.75;4.28;;;;;;;;;;5012445;28;20044;-75
2022/03/23 03:10:21;;;;;;;5.50;4.70;;;;;;;;;;5008161;28;20038;-73
2022/03/23 03:12:49;;;;;;;6.20;5.22;;;;;;;;;;5009279;28;20056;-73
2022/03/23 03:15:19;;;;;;;5.40;4.13;;;;;;;;;;5008492;28;20490;-73
2022/03/23 03:17:46;;;;;;;6.90;4.97;;;;;;;;;;5008716;28;20045;-75
2022/03/23 03:20:15;;;;;;;7.68;5.07;;;;;;;;;;5009367;28;20049;-73
2022/03/23 03:22:43;;;;;;;5.40;4.85;;;;;;;;;;5013206;28;20084;-73
2022/03/23 03:25:14;;;;;;;6.55;4.50;;;;;;;;;;5009656;28;20038;-74
2022/03/23 03:27:43;;;;;;;6.05;4.45;;;;;;;;;;5005911;28;20042;-73
2022/03/23 03:30:12;;;;;;;5.32;4.78;;;;;;;;;;5009199;28;20053;-73
2022/03/23 03:32:39;;;;;;;4.82;4.30;;;;;;;;;;5008348;28;20061;-75
2022/03/23 03:35:12;;;;;;;5.63;4.97;;;;;;;;;;5005560;28;20406;-74
2022/03/23 03:37:40;;;;;;;5.32;4.53;;;;;;;;;;5011880;28;20457;-74
2022/03/23 03:40:09;;;;;;;6.63;5.15;;;;;;;;;;5008292;28;20554;-74
2022/03/23 03:42:37;;;;;;;6.97;4.80;;;;;;;;;;5003992;28;20213;-73
2022/03/23 03:45:05;;;;;;;7.45;5.05;;;;;;;;;;5008401;28;20056;-75
2022/03/23 03:47:33;;;;;;;11.48;5.68;;;;;;;;;;5013711;28;20054;-73
2022/03/23 03:50:00;;;;;;;7.70;6.10;;;;;;;;;;5007217;28;20133;-74
2022/03/23 03:52:28;;;;;;;10.68;5.63;;;;;;;;;;5008064;28;20050;-73
2022/03/23 03:54:55;;;;;;;9.50;6.00;;;;;;;;;;5005627;28;20041;-73
2022/03/23 03:57:22;;;;;;;6.65;5.55;;;;;;;;;;5009076;28;20046;-75
2022/03/23 03:59:50;;;;;;;11.35;6.10;;;;;;;;;;5008119;28;20474;-73
2022/03/23 04:02:19;;;;;;;7.18;5.82;;;;;;;;;;5008711;28;20425;-75
2022/03/23 04:04:46;;;;;;;7.50;5.72;;;;;;;;;;4990331;28;20494;-73
2022/03/23 04:07:14;;;;;;;10.60;7.20;;;;;;;;;;5011123;28;20041;-75
2022/03/23 04:09:41;;;;;;;9.05;6.45;;;;;;;;;;5009226;28;20077;-75
2022/03/23 04:12:09;;;;;;;8.63;6.20;;;;;;;;;;5008312;28;20056;-73
2022/03/23 04:14:36;;;;;;;9.27;6.70;;;;;;;;;;5006737;28;20037;-73
2022/03/23 04:17:04;;;;;;;26.13;8.25;;;;;;;;;;5007294;28;20042;-75
2022/03/23 04:19:32;;;;;;;10.40;6.63;;;;;;;;;;5058802;22;20057;-77
2022/03/23 04:21:59;;;;;;;9.25;6.72;;;;;;;;;;5022158;28;20160;-78
2022/03/23 04:24:26;;;;;;;9.43;7.05;;;;;;;;;;5027542;28;20149;-78
2022/03/23 04:26:54;;;;;;;9.32;7.40;;;;;;;;;;5024532;28;20057;-78
2022/03/23 04:29:24;;;;;;;10.52;6.57;;;;;;;;;;5021591;28;20151;-78
2022/03/23 04:31:52;;;;;;;8.88;6.75;;;;;;;;;;5019065;28;20050;-79
2022/03/23 04:34:19;;;;;;;9.07;6.50;;;;;;;;;;5015693;28;20044;-77
2022/03/23 04:36:47;;;;;;;9.55;6.63;;;;;;;;;;5016563;28;20553;-78
2022/03/23 04:39:14;;;;;;;6.95;5.70;;;;;;;;;;5028823;28;20047;-78
2022/03/23 04:41:41;;;;;;;7.60;5.57;;;;;;;;;;5029405;28;20132;-79
2022/03/23 04:44:09;;;;;;;10.93;6.68;;;;;;;;;;5019861;28;20141;-79
2022/03/23 04:46:36;;;;;;;8.02;5.75;;;;;;;;;;5020767;28;20080;-78
2022/03/23 04:49:03;;;;;;;8.73;6.57;;;;;;;;;;5024774;28;20413;-78
2022/03/23 04:51:31;;;;;;;8.10;6.10;;;;;;;;;;5021689;28;20128;-78
2022/03/23 04:54:00;;;;;;;13.98;8.43;;;;;;;;;;5019557;28;20038;-78
2022/03/23 04:56:27;;;;;;;11.88;8.60;;;;;;;;;;5020755;28;20037;-78
2022/03/23 04:58:54;;;;;;;12.13;8.60;;;;;;;;;;5004368;28;20499;-79
2022/03/23 05:01:22;;;;;;;12.75;9.25;;;;;;;;;;5024150;28;20124;-78
2022/03/23 05:03:50;;;;;;;14.80;10.05;;;;;;;;;;5026562;28;20049;-78
2022/03/23 05:06:17;;;;;;;14.02;10.18;;;;;;;;;;5015100;28;20048;-78
2022/03/23 05:08:45;;;;;;;12.90;8.68;;;;;;;;;;5018352;28;20045;-78
2022/03/23 05:11:13;;;;;;;8.77;6.78;;;;;;;;;;5021889;28;20052;-78
2022/03/23 05:13:40;;;;;;;8.50;6.43;;;;;;;;;;5016713;28;20052;-78
2022/03/23 05:16:08;;;;;;;6.38;5.43;;;;;;;;;;5019511;28;20438;-78
2022/03/23 05:18:35;;;;;;;6.93;6.00;;;;;;;;;;5018344;28;20041;-78
2022/03/23 05:21:03;;;;;;;8.93;6.13;;;;;;;;;;5014033;28;20072;-78
2022/03/23 05:23:30;;;;;;;5.93;5.32;;;;;;;;;;5012609;28;20100;-78
2022/03/23 05:25:58;;;;;;;7.85;6.70;;;;;;;;;;5010311;28;20065;-79
2022/03/23 05:28:30;;;;;;;8.30;6.03;;;;;;;;;;5011026;28;20374;-78
2022/03/23 05:30:57;;;;;;;8.43;6.88;;;;;;;;;;5014899;28;20034;-79
2022/03/23 05:33:25;;;;;;;8.27;6.00;;;;;;;;;;5017393;28;20464;-78
2022/03/23 05:35:52;;;;;;;13.15;7.85;;;;;;;;;;5018109;28;20061;-79
2022/03/23 05:38:20;;;;;;;9.20;7.50;;;;;;;;;;5013844;28;20050;-78
2022/03/23 05:40:47;;;;;;;8.98;7.25;;;;;;;;;;5015865;28;20073;-78
2022/03/23 05:43:14;;;;;;;9.77;8.32;;;;;;;;;;5021619;28;20045;-78
2022/03/23 05:45:42;;;;;;;12.82;8.75;;;;;;;;;;5017460;28;20056;-78
2022/03/23 05:48:09;;;;;;;12.10;9.80;;;;;;;;;;5015157;28;20045;-78
2022/03/23 05:50:36;;;;;;;10.23;9.07;;;;;;;;;;5016825;28;20052;-78
2022/03/23 05:53:04;;;;;;;11.63;8.50;;;;;;;;;;5017881;28;20047;-79
2022/03/23 05:55:32;;;;;;;9.77;8.55;;;;;;;;;;5016580;28;20372;-77
2022/03/23 05:57:59;;;;;;;10.68;9.18;;;;;;;;;;5014852;28;20445;-79
2022/03/23 06:00:27;;;;;;;10.35;8.32;;;;;;;;;;5020927;28;20065;-79
2022/03/23 06:02:58;;;;;;;10.57;8.65;;;;;;;;;;5025848;28;20425;-77
2022/03/23 06:05:26;;;;;;;11.27;9.07;;;;;;;;;;5022682;28;20123;-77
2022/03/23 06:07:54;;;;;;;8.60;7.70;;;;;;;;;;5015352;28;20153;-81
2022/03/23 06:10:27;;;;;;;12.77;9.95;;;;;;;;;;4999912;28;20192;-78
2022/03/23 06:12:55;;;;;;;11.77;10.30;;;;;;;;;;5010471;28;20077;-77
2022/03/23 06:15:22;;;;;;;11.15;9.15;;;;;;;;;;5014302;28;20079;-80
2022/03/23 06:17:49;;;;;;;12.18;9.25;;;;;;;;;;5019236;28;20414;-77
2022/03/23 06:20:17;;;;;;;12.73;8.77;;;;;;;;;;5022998;28;20128;-77
2022/03/23 06:22:44;;;;;;;12.98;9.15;;;;;;;;;;5020649;28;20038;-78
2022/03/23 06:25:12;;;;;;;17.33;8.98;;;;;;;;;;5015747;28;20156;-78
2022/03/23 06:27:39;;;;;;;16.38;10.07;;;;;;;;;;5026567;28;20393;-76
2022/03/23 06:30:08;;;;;;;12.02;9.23;;;;;;;;;;5022847;28;20139;-77
2022/03/23 06:32:35;;;;;;;17.35;8.50;;;;;;;;;;5004047;28;20097;-77
2022/03/23 06:35:03;;;;;;;12.65;7.05;;;;;;;;;;5020155;28;20132;-79
2022/03/23 06:37:31;;;;;;;9.90;6.70;;;;;;;;;;5025481;28;20056;-78
2022/03/23 06:39:58;;;;;;;12.02;7.35;;;;;;;;;;5030168;28;20438;-79
2022/03/23 06:42:27;;;;;;;14.98;7.35;;;;;;;;;;5017795;28;20054;-76
2022/03/23 06:44:55;;;;;;;10.35;8.05;;;;;;;;;;5033595;28;20054;-77
2022/03/23 06:47:22;;;;;;;13.60;7.70;;;;;;;;;;5028337;28;20050;-76
2022/03/23 06:49:50;;;;;;;11.23;7.43;;;;;;;;;;5034912;28;20056;-75
2022/03/23 06:52:17;;;;;;;10.50;7.22;;;;;;;;;;5014589;28;20050;-75
2022/03/23 06:54:45;;;;;;;8.27;6.28;;;;;;;;;;5045158;28;20060;-76
2022/03/23 06:57:13;;;;;;;9.95;7.70;;;;;;;;;;5035986;28;20106;-79
2022/03/23 06:59:41;;;;;;;15.55;7.10;;;;;;;;;;5044032;28;20045;-76
2022/03/23 07:02:10;;;;;;;8.75;6.57;;;;;;;;;;5039217;28;20033;-78
2022/03/23 07:04:38;;;;;;;7.95;6.28;;;;;;;;;;5032105;28;20053;-79
2022/03/23 07:07:05;;;;;;;11.57;6.55;;;;;;;;;;5029790;28;20080;-79
2022/03/23 07:09:33;;;;;;;9.02;6.80;;;;;;;;;;5023734;28;20136;-78
2022/03/23 07:12:05;;;;;;;9.43;6.47;;;;;;;;;;5025238;28;20147;-79
2022/03/23 07:14:33;;;;;;;11.90;6.82;;;;;;;;;;5029016;28;20045;-80
2022/03/23 07:17:01;;;;;;;8.85;6.57;;;;;;;;;;5019258;28;20056;-79
2022/03/23 07:19:28;;;;;;;8.77;6.28;;;;;;;;;;5024135;28;20489;-80
2022/03/23 07:21:56;;;;;;;9.35;6.20;;;;;;;;;;5027477;28;20041;-77
2022/03/23 07:24:24;;;;;;;10.75;5.82;;;;;;;;;;5019853;28;20045;-77
2022/03/23 07:26:52;;;;;;;9.20;5.70;;;;;;;;;;5014826;28;20046;-78
2022/03/23 07:29:40;;;;;;;9.77;6.28;;;;;;;;;;5024311;28;20048;-80
2022/03/23 07:32:08;;;;;;;12.57;6.25;;;;;;;;;;5007689;28;20079;-76
2022/03/23 07:34:35;;;;;;;7.85;5.88;;;;;;;;;;5022609;28;20334;-80
2022/03/23 07:37:02;;;;;;;7.18;5.72;;;;;;;;;;5035376;28;20050;-78
2022/03/23 07:39:40;;;;;;;7.65;5.75;;;;;;;;;;5031294;28;20081;-79
2022/03/23 07:42:18;;;;;;;7.78;6.30;;;;;;;;;;5030155;28;20092;-80
2022/03/23 07:44:46;;;;;;;5.97;5.38;;;;;;;;;;5019404;28;20374;-75
2022/03/23 07:47:15;;;;;;;6.53;5.70;;;;;;;;;;5019280;28;20049;-79
2022/03/23 07:49:42;;;;;;;6.90;5.57;;;;;;;;;;5016517;28;20107;-76
2022/03/23 07:52:10;;;;;;;6.05;5.40;;;;;;;;;;5016092;28;20106;-74
2022/03/23 07:54:38;;;;;;;10.07;6.25;;;;;;;;;;5019657;28;20041;-77
2022/03/23 07:57:06;;;;;;;8.02;5.90;;;;;;;;;;5023312;28;20037;-80
2022/03/23 07:59:34;;;;;;;6.63;5.70;;;;;;;;;;5018928;28;20051;-78
2022/03/23 08:02:01;;;;;;;6.55;5.50;;;;;;;;;;5024403;28;20053;-77
2022/03/23 08:04:29;;;;;;;6.50;5.60;;;;;;;;;;5021391;28;20130;-75
2022/03/23 08:06:57;;;;;;;7.10;5.53;;;;;;;;;;5016666;28;20037;-76
2022/03/23 08:09:24;;;;;;;6.85;5.25;;;;;;;;;;5000813;28;20050;-81
2022/03/23 08:11:51;;;;;;;6.10;5.50;;;;;;;;;;5014725;28;20068;-76
2022/03/23 08:14:19;;;;;;;7.13;5.18;;;;;;;;;;5017588;28;20056;-77
2022/03/23 08:16:47;;;;;;;5.72;5.07;;;;;;;;;;5009279;28;20089;-75
2022/03/23 08:19:14;;;;;;;7.93;5.60;;;;;;;;;;5022157;28;20038;-77
2022/03/23 08:21:41;;;;;;;8.40;5.65;;;;;;;;;;5010643;28;20393;-75
2022/03/23 08:24:09;;;;;;;10.10;5.55;;;;;;;;;;5024104;28;20041;-82
2022/03/23 08:26:38;;;;;;;6.88;5.75;;;;;;;;;;5023672;28;20069;-78
2022/03/23 08:29:06;;;;;;;7.15;5.40;;;;;;;;;;5026240;28;20072;-78
2022/03/23 08:31:33;;;;;;;6.72;5.90;;;;;;;;;;5007047;28;20548;-76
2022/03/23 08:34:01;;;;;;;7.28;5.90;;;;;;;;;;5007959;28;20519;-77
2022/03/23 08:36:29;;;;;;;8.15;5.70;;;;;;;;;;5027967;28;20077;-76
2022/03/23 08:38:57;;;;;;;8.38;6.25;;;;;;;;;;5010718;28;20467;-77
2022/03/23 08:41:24;;;;;;;9.32;6.68;;;;;;;;;;5027158;28;20045;-79
2022/03/23 08:43:51;;;;;;;7.28;6.22;;;;;;;;;;5026982;28;20163;-76
2022/03/23 08:46:19;;;;;;;6.47;5.68;;;;;;;;;;5025333;28;20139;-82
2022/03/23 08:48:46;;;;;;;7.63;5.45;;;;;;;;;;5005418;28;20124;-79
2022/03/23 08:51:14;;;;;;;5.88;5.22;;;;;;;;;;5009790;28;20123;-76
2022/03/23 08:53:42;;;;;;;6.70;5.88;;;;;;;;;;5027736;28;20164;-76
2022/03/23 08:56:11;;;;;;;6.95;5.32;;;;;;;;;;5010018;28;20056;-76
2022/03/23 08:58:48;;;;;;;7.43;4.95;;;;;;;;;;4997981;28;20052;-80
2022/03/23 09:01:16;;;;;;;6.38;4.70;;;;;;;;;;5014971;28;20073;-77
2022/03/23 09:03:45;;;;;;;7.40;5.10;;;;;;;;;;4994154;28;20045;-75
2022/03/23 09:06:12;;;;;;;6.20;4.53;;;;;;;;;;5025713;28;20084;-77
2022/03/23 09:08:40;;;;;;;5.55;4.20;;;;;;;;;;5026085;28;20049;-81
2022/03/23 09:11:07;;;;;;;6.55;4.60;;;;;;;;;;5024139;28;20400;-76
2022/03/23 09:13:34;;;;;;;4.95;4.45;;;;;;;;;;5026038;28;20065;-76
2022/03/23 09:16:03;;;;;;;4.65;4.25;;;;;;;;;;5027350;28;20166;-80
2022/03/23 09:18:31;;;;;;;5.35;4.18;;;;;;;;;;5027187;28;20042;-79
2022/03/23 09:20:59;;;;;;;5.05;3.92;;;;;;;;;;5009718;28;20107;-76
2022/03/23 09:23:32;;;;;;;3.65;3.35;;;;;;;;;;5025976;28;20068;-76
2022/03/23 09:26:01;;;;;;;5.30;3.47;;;;;;;;;;5026069;28;20136;-77
2022/03/23 09:28:29;;;;;;;3.80;3.35;;;;;;;;;;5009806;28;20060;-79
2022/03/23 09:30:58;;;;;;;4.50;4.10;;;;;;;;;;5009430;28;20096;-79
2022/03/23 09:33:27;;;;;;;9.77;4.38;;;;;;;;;;5008945;28;20115;-77
2022/03/23 09:35:55;;;;;;;4.38;3.97;;;;;;;;;;5024746;28;20520;-78
2022/03/23 09:38:22;;;;;;;8.15;4.30;;;;;;;;;;5027719;28;20493;-76
2022/03/23 09:40:51;;;;;;;7.70;4.10;;;;;;;;;;5025705;28;20129;-76
2022/03/23 09:43:21;;;;;;;4.30;3.88;;;;;;;;;;5009632;28;20132;-76
2022/03/23 09:45:50;;;;;;;10.35;4.25;;;;;;;;;;5009078;28;20057;-77
2022/03/23 09:48:21;;;;;;;5.05;4.18;;;;;;;;;;5025650;28;20075;-79
2022/03/23 09:50:50;;;;;;;7.25;4.60;;;;;;;;;;5009255;28;20125;-79
2022/03/23 09:53:19;;;;;;;9.68;4.60;;;;;;;;;;5025536;28;20429;-77
2022/03/23 09:55:48;;;;;;;9.82;4.53;;;;;;;;;;5025326;28;20046;-77
2022/03/23 09:58:16;;;;;;;5.13;4.63;;;;;;;;;;5028132;28;20067;-78
2022/03/23 10:00:44;;;;;;;6.35;4.55;;;;;;;;;;5024136;28;20176;-80
2022/03/23 10:03:12;;;;;;;6.05;4.82;;;;;;;;;;5026978;28;20049;-77
2022/03/23 10:05:59;;;;;;;14.18;5.03;;;;;;;;;;5025441;28;20041;-78
2022/03/23 10:08:45;;;;;;;7.63;4.85;;;;;;;;;;5026010;28;20080;-76
2022/03/23 10:11:35;;;;;;;5.20;4.70;;;;;;;;;;4989851;28;20060;-78
2022/03/23 10:14:22;;;;;;;7.13;5.30;;;;;;;;;;4990354;28;20053;-80
2022/03/23 10:17:08;;;;;;;5.93;4.70;;;;;;;;;;5018314;28;20046;-79
2022/03/23 10:19:41;;;;;;;11.45;4.55;;;;;;;;;;5053166;23;20064;-76
2022/03/23 10:22:13;;;;;;;4.55;4.15;;;;;;;;;;5045637;28;20049;-77
2022/03/23 10:24:41;;;;;;;8.13;4.20;;;;;;;;;;5046038;28;20096;-77
2022/03/23 10:27:10;;;;;;;4.65;3.80;;;;;;;;;;5045498;28;20546;-76
2022/03/23 10:29:42;;;;;;;6.97;3.78;;;;;;;;;;5046743;28;20033;-75
2022/03/23 10:32:10;;;;;;;;;;;;;;;;;;5046888;28;20522;-76
2022/03/23 10:34:42;;;;;;;4.13;3.20;;;;;;;;;;5044932;28;19963;-74
2022/03/23 10:37:10;;;;;;;3.72;3.38;;;;;;;;;;5046542;28;20115;-75
2022/03/23 10:39:44;;;;;;;5.22;3.60;;;;;;;;;;5046847;28;20328;-75
2022/03/23 10:42:14;;;;;;;4.68;3.72;;;;;;;;;;5046940;28;20041;-76
2022/03/23 10:44:41;;;;;;;3.80;3.40;;;;;;;;;;5042502;28;20060;-76
2022/03/23 10:47:20;;;;;;;3.20;2.90;;;;;;;;;;5043715;28;20041;-76
2022/03/23 10:49:48;;;;;;;3.83;3.30;;;;;;;;;;5043119;28;20041;-75
2022/03/23 10:52:16;;;;;;;3.15;2.90;;;;;;;;;;5043913;28;20044;-75
2022/03/23 10:54:54;;;;;;;5.38;3.25;;;;;;;;;;5042511;28;20136;-77
2022/03/23 10:57:22;;;;;;;3.45;3.15;;;;;;;;;;5040155;28;20041;-76
2022/03/23 10:59:49;;;;;;;2.97;2.70;;;;;;;;;;5043287;28;20391;-76
2022/03/23 11:02:18;;;;;;;4.93;3.20;;;;;;;;;;5045528;28;20072;-75
2022/03/23 11:04:47;;;;;;;2.75;2.55;;;;;;;;;;5047342;28;20041;-74
2022/03/23 11:07:23;;;;;;;4.05;2.70;;;;;;;;;;5049509;28;20071;-76
2022/03/23 11:18:12;;;;;;;2.88;2.67;;;;;;;;;;5046639;28;20045;-76
2022/03/23 11:20:40;;;;;;;7.20;3.00;;;;;;;;;;5048300;28;20467;-76
2022/03/23 11:23:26;;;;;;;3.22;2.92;;;;;;;;;;5047405;28;20408;-75
2022/03/23 11:25:59;;;;;;;3.45;3.15;;;;;;;;;;5046298;28;20552;-76
2022/03/23 11:28:28;;;;;;;5.22;2.80;;;;;;;;;;5031961;28;20078;-75
2022/03/23 11:30:57;;;;;;;3.88;2.80;;;;;;;;;;5041699;28;20045;-75
2022/03/23 11:33:26;;;;;;;3.70;2.90;;;;;;;;;;5049987;28;20056;-74
2022/03/23 11:35:53;;;;;;;3.25;2.90;;;;;;;;;;5047189;28;20047;-75
2022/03/23 11:38:22;;;;;;;3.30;3.00;;;;;;;;;;5048720;28;20127;-76
2022/03/23 11:40:52;;;;;;;4.25;3.10;;;;;;;;;;5048653;28;20158;-75
2022/03/23 11:43:21;;;;;;;6.50;3.45;;;;;;;;;;5047823;28;20053;-75
2022/03/23 11:46:10;;;;;;;4.70;3.22;;;;;;;;;;5046656;28;20045;-74
2022/03/23 11:48:48;;;;;;;4.13;3.22;;;;;;;;;;5049402;28;20131;-75
2022/03/23 11:51:33;;;;;;;3.30;3.00;;;;;;;;;;5047103;28;20041;-77
2022/03/23 11:54:10;;;;;;;6.88;3.63;;;;;;;;;;5048312;28;20493;-76
2022/03/23 11:56:52;;;;;;;4.53;3.13;;;;;;;;;;5047939;28;20037;-76
2022/03/23 11:59:20;;;;;;;3.97;3.20;;;;;;;;;;5048721;28;20120;-76
2022/03/23 12:01:50;;;;;;;3.90;3.53;;;;;;;;;;5048390;28;20273;-76
2022/03/23 12:04:28;;;;;;;3.80;3.22;;;;;;;;;;5047735;28;20124;-76
2022/03/23 12:07:09;;;;;;;3.50;3.30;;;;;;;;;;5046242;28;20047;-75
2022/03/23 12:09:41;;;;;;;4.55;3.60;;;;;;;;;;5048662;28;20043;-76
2022/03/23 12:12:11;;;;;;;3.55;3.25;;;;;;;;;;5047732;28;20045;-76
2022/03/23 12:14:39;;;;;;;3.83;3.50;;;;;;;;;;5046636;28;20045;-76
2022/03/23 12:17:07;;;;;;;7.28;4.20;;;;;;;;;;5048324;28;20755;-76
2022/03/23 12:20:03;;;;;;;3.72;3.20;;;;;;;;;;5048506;28;20047;-74
2022/03/23 12:22:33;;;;;;;4.93;3.10;;;;;;;;;;5043966;28;20037;-74
2022/03/23 12:25:07;;;;;;;6.68;3.42;;;;;;;;;;5028525;28;20041;-76
2022/03/23 12:27:41;;;;;;;3.78;3.35;;;;;;;;;;5045364;28;20053;-75
2022/03/23 12:30:15;;;;;;;4.72;3.28;;;;;;;;;;5045937;28;20520;-76
2022/03/23 12:32:43;;;;;;;5.70;3.40;;;;;;;;;;5046590;28;20496;-74
2022/03/23 12:35:10;;;;;;;3.45;3.15;;;;;;;;;;5046042;28;20551;-76
2022/03/23 12:37:38;;;;;;;3.65;3.35;;;;;;;;;;5028201;28;20140;-76
2022/03/23 12:40:13;;;;;;;10.18;3.45;;;;;;;;;;5028813;28;20076;-76
2022/03/23 12:42:44;;;;;;;3.47;3.17;;;;;;;;;;5027683;28;20460;-76
2022/03/23 12:45:19;;;;;;;4.93;3.17;;;;;;;;;;5027397;28;20128;-74
2022/03/23 12:47:54;;;;;;;3.60;2.75;;;;;;;;;;5046763;28;20037;-76
2022/03/23 12:59:21;;;;;;;3.45;2.85;;;;;;;;;;5047131;28;20037;-77
2022/03/23 13:01:55;;;;;;;4.03;2.60;;;;;;;;;;5047435;28;20063;-76
2022/03/23 13:04:45;;;;;;;3.17;2.88;;;;;;;;;;5046146;28;20122;-75
2022/03/23 13:07:28;;;;;;;3.45;2.50;;;;;;;;;;5045140;28;20056;-75
2022/03/23 13:09:56;;;;;;;2.63;2.22;;;;;;;;;;5049161;28;20064;-76
2022/03/23 13:12:27;;;;;;;3.00;2.72;;;;;;;;;;5045355;28;20049;-76
2022/03/23 13:14:54;;;;;;;3.08;2.70;;;;;;;;;;5045917;28;20543;-77
2022/03/23 13:17:23;;;;;;;8.13;3.05;;;;;;;;;;5046381;28;20123;-77
2022/03/23 13:19:59;;;;;;;2.70;2.50;;;;;;;;;;5048067;28;20041;-77
2022/03/23 13:22:34;;;;;;;2.15;2.05;;;;;;;;;;5047818;28;20033;-77
2022/03/23 13:25:03;;;;;;;2.80;2.58;;;;;;;;;;5045052;28;20051;-77
2022/03/23 13:27:30;;;;;;;2.20;2.00;;;;;;;;;;5046394;28;20122;-77
2022/03/23 13:30:01;;;;;;;7.60;2.45;;;;;;;;;;5047870;28;20071;-76
2022/03/23 13:32:33;;;;;;;4.93;2.30;;;;;;;;;;5045973;28;20060;-77
2022/03/23 13:35:00;;;;;;;3.22;2.10;;;;;;;;;;5045960;28;20522;-76
2022/03/23 13:37:55;;;;;;;2.72;2.22;;;;;;;;;;5026873;28;20041;-76
2022/03/23 13:40:30;;;;;;;5.90;2.20;;;;;;;;;;5030204;28;20045;-75
2022/03/23 13:45:46;;;;;;;6.40;2.85;;;;;;;;;;5046428;28;20298;-75
2022/03/23 13:48:14;;;;;;;2.88;2.10;;;;;;;;;;5047133;28;20037;-76
2022/03/23 13:51:00;;;;;;;2.80;2.60;;;;;;;;;;5045873;28;20056;-76
2022/03/23 13:53:27;;;;;;;1.85;1.75;;;;;;;;;;5046253;28;20041;-76
2022/03/23 13:55:56;;;;;;;2.28;2.17;;;;;;;;;;5046547;28;20045;-75
2022/03/23 13:58:25;;;;;;;3.55;2.30;;;;;;;;;;5047944;28;20128;-75
2022/03/23 14:00:55;;;;;;;2.15;2.03;;;;;;;;;;5041610;28;20042;-75
2022/03/23 14:03:31;;;;;;;2.40;2.20;;;;;;;;;;5034711;28;20033;-74
2022/03/23 14:06:02;;;;;;;2.10;2.00;;;;;;;;;;5038350;28;20033;-76
2022/03/23 14:08:31;;;;;;;4.53;2.30;;;;;;;;;;5038845;28;20140;-74
2022/03/23 14:10:59;;;;;;;2.53;2.15;;;;;;;;;;5040876;28;20528;-76
2022/03/23 14:13:26;;;;;;;3.90;2.33;;;;;;;;;;5028284;28;20183;-74
2022/03/23 14:15:55;;;;;;;4.30;2.38;;;;;;;;;;5032570;28;20075;-74
2022/03/23 14:18:24;;;;;;;2.60;2.40;;;;;;;;;;5041365;28;20047;-76
2022/03/23 14:20:53;;;;;;;5.40;2.33;;;;;;;;;;5037787;28;20558;-75
2022/03/23 14:23:28;;;;;;;4.28;2.38;;;;;;;;;;5038784;28;20047;-75
2022/03/23 14:26:20;;;;;;;3.85;2.28;;;;;;;;;;5036922;28;20164;-76
2022/03/23 14:28:47;;;;;;;7.15;3.08;;;;;;;;;;5043563;28;20052;-76
2022/03/23 14:31:24;;;;;;;2.72;2.53;;;;;;;;;;5039090;28;20494;-76
2022/03/23 14:33:54;;;;;;;8.15;2.80;;;;;;;;;;5038729;28;20049;-75
2022/03/23 14:36:24;;;;;;;3.63;2.50;;;;;;;;;;5032082;28;20048;-75
2022/03/23 14:38:51;;;;;;;2.85;2.65;;;;;;;;;;5039211;28;20045;-75
2022/03/23 14:41:21;;;;;;;3.88;2.42;;;;;;;;;;5047056;28;20493;-76
2022/03/23 14:43:50;;;;;;;5.50;2.33;;;;;;;;;;5041542;28;20092;-74
2022/03/23 14:46:20;;;;;;;3.45;2.25;;;;;;;;;;5041780;28;20102;-76
2022/03/23 14:49:09;;;;;;;3.58;2.10;;;;;;;;;;5047828;28;20475;-75
2022/03/23 14:51:37;;;;;;;2.67;2.55;;;;;;;;;;5048776;28;20114;-75
2022/03/23 14:54:06;;;;;;;2.55;2.35;;;;;;;;;;5049478;28;20081;-74
2022/03/23 14:56:34;;;;;;;2.60;2.40;;;;;;;;;;5048749;28;20037;-76
2022/03/23 14:59:01;;;;;;;2.75;2.30;;;;;;;;;;5049205;28;20053;-76
2022/03/23 15:01:28;;;;;;;3.40;2.40;;;;;;;;;;5049520;28;20072;-75
2022/03/23 15:03:56;;;;;;;3.22;2.95;;;;;;;;;;5051131;28;20053;-78
2022/03/23 15:14:48;;;;;;;2.20;2.10;;;;;;;;;;5058732;28;20052;-75
2022/03/23 15:17:16;;;;;;;2.50;2.30;;;;;;;;;;5038280;28;20498;-74
2022/03/23 15:19:44;;;;;;;2.42;2.30;;;;;;;;;;5034890;28;20209;-75
2022/03/23 15:22:11;;;;;;;10.32;2.88;;;;;;;;;;5037351;28;20426;-76
2022/03/23 15:24:38;;;;;;;2.45;2.30;;;;;;;;;;5032539;28;20822;-75
2022/03/23 15:27:06;;;;;;;5.75;2.50;;;;;;;;;;5042646;28;20044;-75
2022/03/23 15:29:33;;;;;;;6.72;3.03;;;;;;;;;;5040496;28;20051;-77
2022/03/23 15:32:01;;;;;;;4.05;2.40;;;;;;;;;;5034753;28;20048;-75
2022/03/23 15:34:34;;;;;;;2.97;2.53;;;;;;;;;;5043408;28;20052;-75